Time;durP1;ratioP1;P1;durP2;ratioP2;P2;SDS_P1;SDS_P2;PMS_P1;PMS_P2;Temp;Humidity;BMP_temperature;BMP_pressure;BME280_temperature;BME280_humidity;BME280_pressure;Samples;Min_cycle;Max_cycle;Signal;HPM_P1;HPM_P2
2022/05/13 00:00:24;;;;;;;18.23;9.77;;;;;;;;;;5031580;28;20021;-38
2022/05/13 00:02:50;;;;;;;18.40;8.82;;;;;;;;;;5031822;28;20032;-38
2022/05/13 00:05:15;;;;;;;15.35;9.32;;;;;;;;;;5031388;28;20049;-38
2022/05/13 00:07:41;;;;;;;13.63;7.53;;;;;;;;;;5031593;28;20033;-38
2022/05/13 00:10:06;;;;;;;15.25;9.23;;;;;;;;;;5033150;28;20057;-38
2022/05/13 00:12:33;;;;;;;14.32;9.43;;;;;;;;;;5032910;28;20519;-38
2022/05/13 00:15:00;;;;;;;18.02;9.75;;;;;;;;;;5032511;28;20096;-38
2022/05/13 00:17:26;;;;;;;16.75;9.27;;;;;;;;;;5032942;28;20114;-38
2022/05/13 00:19:51;;;;;;;17.15;8.90;;;;;;;;;;5031524;28;20477;-39
2022/05/13 00:22:18;;;;;;;18.80;9.10;;;;;;;;;;5031563;28;20469;-38
2022/05/13 00:24:44;;;;;;;16.55;8.98;;;;;;;;;;5032611;28;20479;-38
2022/05/13 00:27:10;;;;;;;16.67;9.40;;;;;;;;;;5031294;28;20036;-38
2022/05/13 00:29:35;;;;;;;15.48;8.52;;;;;;;;;;5032644;28;20096;-38
2022/05/13 00:32:01;;;;;;;20.13;10.25;;;;;;;;;;5032526;28;20025;-38
2022/05/13 00:34:26;;;;;;;18.80;10.68;;;;;;;;;;5031484;28;20017;-38
2022/05/13 00:36:52;;;;;;;15.63;10.55;;;;;;;;;;5031530;28;20025;-38
2022/05/13 00:39:17;;;;;;;14.75;10.10;;;;;;;;;;5031385;28;20549;-38
2022/05/13 00:41:43;;;;;;;16.75;9.77;;;;;;;;;;5031200;28;20013;-38
2022/05/13 00:44:08;;;;;;;24.38;11.20;;;;;;;;;;5031193;28;20068;-40
2022/05/13 00:46:34;;;;;;;20.60;10.20;;;;;;;;;;5032294;28;20041;-38
2022/05/13 00:49:01;;;;;;;17.27;9.70;;;;;;;;;;5032664;28;20456;-38
2022/05/13 00:51:29;;;;;;;16.27;9.27;;;;;;;;;;5031453;28;20036;-38
2022/05/13 00:53:55;;;;;;;13.13;9.00;;;;;;;;;;5031274;28;20018;-38
2022/05/13 00:56:21;;;;;;;16.90;9.98;;;;;;;;;;5031093;28;20029;-38
2022/05/13 00:58:48;;;;;;;13.48;9.80;;;;;;;;;;5032393;28;20029;-39
2022/05/13 01:01:14;;;;;;;18.42;9.80;;;;;;;;;;5031015;28;20025;-38
2022/05/13 01:03:39;;;;;;;17.92;9.98;;;;;;;;;;5031239;28;20488;-38
2022/05/13 01:06:06;;;;;;;18.17;9.23;;;;;;;;;;5032290;28;20412;-38
2022/05/13 01:08:32;;;;;;;15.18;8.68;;;;;;;;;;5030898;28;20018;-38
2022/05/13 01:11:00;;;;;;;19.02;9.68;;;;;;;;;;5031089;28;20036;-38
2022/05/13 01:13:28;;;;;;;16.70;9.95;;;;;;;;;;5032254;28;20014;-38
2022/05/13 01:15:54;;;;;;;18.00;9.73;;;;;;;;;;5032400;28;20029;-38
2022/05/13 01:18:27;;;;;;;17.13;9.32;;;;;;;;;;5032314;28;20029;-38
2022/05/13 01:20:52;;;;;;;13.32;8.15;;;;;;;;;;5030918;28;20473;-38
2022/05/13 01:23:19;;;;;;;14.32;9.32;;;;;;;;;;5032268;28;20504;-38
2022/05/13 01:25:46;;;;;;;16.38;9.85;;;;;;;;;;5033671;28;20030;-38
2022/05/13 01:28:13;;;;;;;17.33;9.57;;;;;;;;;;5034202;28;20025;-38
2022/05/13 01:30:41;;;;;;;16.20;9.98;;;;;;;;;;5035690;28;20140;-38
2022/05/13 01:33:07;;;;;;;22.08;11.18;;;;;;;;;;5035764;28;20029;-38
2022/05/13 01:35:32;;;;;;;19.42;10.60;;;;;;;;;;5035841;28;20491;-38
2022/05/13 01:37:57;;;;;;;15.65;9.13;;;;;;;;;;5035908;28;20187;-38
2022/05/13 01:40:23;;;;;;;13.25;8.85;;;;;;;;;;5034225;28;20017;-38
2022/05/13 01:42:48;;;;;;;16.30;9.75;;;;;;;;;;5035561;28;20036;-38
2022/05/13 01:45:14;;;;;;;21.10;11.30;;;;;;;;;;5034296;28;20025;-38
2022/05/13 01:47:40;;;;;;;18.92;9.68;;;;;;;;;;5035490;28;20030;-38
2022/05/13 01:50:06;;;;;;;17.98;9.10;;;;;;;;;;5034207;28;20044;-38
2022/05/13 01:52:32;;;;;;;22.52;10.75;;;;;;;;;;5033962;28;20022;-38
2022/05/13 01:54:57;;;;;;;18.02;9.25;;;;;;;;;;5035297;28;20079;-38
2022/05/13 01:57:23;;;;;;;25.88;10.07;;;;;;;;;;5033753;28;20030;-38
2022/05/13 01:59:48;;;;;;;15.60;10.70;;;;;;;;;;5035360;28;20061;-38
2022/05/13 02:02:13;;;;;;;13.30;9.40;;;;;;;;;;5033959;28;20550;-38
2022/05/13 02:04:39;;;;;;;15.85;8.98;;;;;;;;;;5035090;28;20481;-38
2022/05/13 02:07:04;;;;;;;17.83;8.75;;;;;;;;;;5033606;28;20477;-38
2022/05/13 02:09:29;;;;;;;17.48;9.63;;;;;;;;;;5035008;28;20033;-38
2022/05/13 02:11:55;;;;;;;17.10;8.82;;;;;;;;;;5033626;28;20018;-38
2022/05/13 02:14:20;;;;;;;15.20;9.38;;;;;;;;;;5033483;28;20420;-38
2022/05/13 02:16:45;;;;;;;12.85;8.70;;;;;;;;;;5033717;28;20099;-38
2022/05/13 02:19:11;;;;;;;13.15;8.60;;;;;;;;;;5033733;28;20056;-38
2022/05/13 02:21:36;;;;;;;15.65;8.10;;;;;;;;;;5034878;28;20045;-38
2022/05/13 02:24:02;;;;;;;18.05;9.15;;;;;;;;;;5035107;28;20021;-38
2022/05/13 02:26:28;;;;;;;13.20;8.88;;;;;;;;;;5034611;28;20109;-38
2022/05/13 02:28:53;;;;;;;13.43;9.00;;;;;;;;;;5034537;28;20072;-38
2022/05/13 02:31:18;;;;;;;18.95;11.77;;;;;;;;;;5034803;28;20108;-38
2022/05/13 02:33:44;;;;;;;17.10;10.18;;;;;;;;;;5033455;28;20026;-38
2022/05/13 02:36:11;;;;;;;17.95;10.55;;;;;;;;;;5033122;28;20017;-38
2022/05/13 02:38:36;;;;;;;17.48;10.38;;;;;;;;;;5033321;28;20448;-38
2022/05/13 02:41:11;;;;;;;16.73;10.00;;;;;;;;;;5033288;28;20109;-38
2022/05/13 02:43:37;;;;;;;16.77;11.15;;;;;;;;;;5032904;28;20029;-38
2022/05/13 02:46:02;;;;;;;17.00;9.57;;;;;;;;;;5033013;28;20043;-38
2022/05/13 02:48:28;;;;;;;15.52;10.23;;;;;;;;;;5034417;28;20051;-38
2022/05/13 02:50:53;;;;;;;21.90;11.32;;;;;;;;;;5033073;28;20032;-38
2022/05/13 02:53:19;;;;;;;14.60;9.98;;;;;;;;;;5034193;28;20031;-38
2022/05/13 02:55:44;;;;;;;18.45;11.63;;;;;;;;;;5034125;28;20064;-38
2022/05/13 02:58:09;;;;;;;22.23;10.90;;;;;;;;;;5034010;28;20029;-38
2022/05/13 03:00:35;;;;;;;21.38;10.75;;;;;;;;;;5034286;28;20025;-38
2022/05/13 03:03:01;;;;;;;16.58;11.43;;;;;;;;;;5034073;28;20017;-38
2022/05/13 03:05:26;;;;;;;18.75;12.32;;;;;;;;;;5034076;28;20064;-38
2022/05/13 03:07:52;;;;;;;19.02;11.50;;;;;;;;;;5032519;28;20554;-38
2022/05/13 03:10:18;;;;;;;20.65;9.93;;;;;;;;;;5033813;28;20409;-38
2022/05/13 03:12:44;;;;;;;17.40;10.52;;;;;;;;;;5033665;28;20025;-38
2022/05/13 03:15:10;;;;;;;17.65;11.05;;;;;;;;;;5032719;28;20104;-39
2022/05/13 03:17:36;;;;;;;18.52;10.73;;;;;;;;;;5032557;28;20537;-38
2022/05/13 03:20:02;;;;;;;20.10;11.18;;;;;;;;;;5032801;28;20390;-38
2022/05/13 03:22:27;;;;;;;23.13;10.93;;;;;;;;;;5034089;28;20369;-38
2022/05/13 03:24:52;;;;;;;23.65;11.13;;;;;;;;;;5033694;28;20021;-38
2022/05/13 03:27:18;;;;;;;19.77;10.85;;;;;;;;;;5032084;28;20500;-38
2022/05/13 03:29:43;;;;;;;20.33;10.52;;;;;;;;;;5032558;28;20021;-38
2022/05/13 03:32:09;;;;;;;17.00;9.40;;;;;;;;;;5033325;28;20464;-38
2022/05/13 03:34:40;;;;;;;22.90;11.63;;;;;;;;;;5033392;28;20479;-38
2022/05/13 03:37:05;;;;;;;19.60;11.02;;;;;;;;;;5033382;28;20017;-38
2022/05/13 03:39:30;;;;;;;19.42;11.55;;;;;;;;;;5033117;28;20131;-38
2022/05/13 03:41:56;;;;;;;18.38;11.70;;;;;;;;;;5032116;28;20052;-38
2022/05/13 03:44:21;;;;;;;14.18;8.90;;;;;;;;;;5032162;28;20025;-38
2022/05/13 03:46:46;;;;;;;15.80;11.38;;;;;;;;;;5031920;28;20037;-38
2022/05/13 03:49:12;;;;;;;23.48;11.25;;;;;;;;;;5032546;28;20029;-38
2022/05/13 03:51:37;;;;;;;27.13;12.35;;;;;;;;;;5031960;28;20018;-38
2022/05/13 03:54:03;;;;;;;18.33;10.77;;;;;;;;;;5033243;28;20034;-38
2022/05/13 03:56:29;;;;;;;20.60;10.98;;;;;;;;;;5031601;28;20029;-40
2022/05/13 03:58:54;;;;;;;17.67;11.32;;;;;;;;;;5032945;28;20035;-38
2022/05/13 04:01:20;;;;;;;22.48;12.20;;;;;;;;;;5033225;28;20072;-38
2022/05/13 04:03:47;;;;;;;29.33;12.65;;;;;;;;;;5031852;28;20025;-38
2022/05/13 04:08:59;;;;;;;21.40;10.77;;;;;;;;;;5032909;28;20057;-38
2022/05/13 04:11:32;;;;;;;19.00;10.80;;;;;;;;;;5031390;28;20104;-38
2022/05/13 04:16:43;;;;;;;17.23;8.68;;;;;;;;;;5032996;28;20064;-38
2022/05/13 04:19:09;;;;;;;19.42;10.68;;;;;;;;;;5032886;28;20092;-38
2022/05/13 04:21:36;;;;;;;20.85;9.77;;;;;;;;;;5031381;28;20026;-39
2022/05/13 04:24:04;;;;;;;17.48;10.75;;;;;;;;;;5032779;28;20022;-38
2022/05/13 04:26:29;;;;;;;13.82;10.13;;;;;;;;;;5031539;28;20037;-38
2022/05/13 04:28:56;;;;;;;15.95;11.38;;;;;;;;;;5031534;28;20022;-38
2022/05/13 04:31:26;;;;;;;22.77;12.20;;;;;;;;;;5031492;28;20040;-38
2022/05/13 04:33:52;;;;;;;16.70;10.38;;;;;;;;;;5033008;28;20053;-38
2022/05/13 04:36:18;;;;;;;15.00;9.82;;;;;;;;;;5032471;28;20052;-38
2022/05/13 04:38:45;;;;;;;12.07;9.02;;;;;;;;;;5032764;28;20643;-38
2022/05/13 04:43:54;;;;;;;15.23;11.93;;;;;;;;;;5032598;28;20068;-38
2022/05/13 04:46:19;;;;;;;16.98;11.70;;;;;;;;;;5032303;28;20121;-38
2022/05/13 04:48:47;;;;;;;14.80;10.75;;;;;;;;;;5031115;28;20010;-39
2022/05/13 04:51:12;;;;;;;14.95;10.70;;;;;;;;;;5014972;28;20092;-38
2022/05/13 04:53:38;;;;;;;17.23;11.18;;;;;;;;;;5032582;28;20157;-38
2022/05/13 04:56:05;;;;;;;25.40;12.48;;;;;;;;;;5031344;28;20037;-38
2022/05/13 04:58:30;;;;;;;15.38;11.20;;;;;;;;;;5032397;28;20009;-38
2022/05/13 05:00:57;;;;;;;18.67;10.68;;;;;;;;;;5034620;28;20033;-38
2022/05/13 05:03:23;;;;;;;15.10;9.75;;;;;;;;;;5036036;28;20021;-42
2022/05/13 05:05:49;;;;;;;12.57;8.95;;;;;;;;;;5034479;28;20045;-38
2022/05/13 05:08:15;;;;;;;11.80;9.55;;;;;;;;;;5034935;28;20044;-38
2022/05/13 05:10:41;;;;;;;17.77;11.05;;;;;;;;;;5036150;28;20017;-38
2022/05/13 05:13:07;;;;;;;11.98;9.07;;;;;;;;;;5036376;28;20029;-38
2022/05/13 05:15:33;;;;;;;11.50;9.30;;;;;;;;;;5036254;28;20029;-38
2022/05/13 05:17:59;;;;;;;15.02;10.55;;;;;;;;;;5034703;28;20021;-38
2022/05/13 05:20:24;;;;;;;13.45;8.80;;;;;;;;;;5036067;28;20079;-38
2022/05/13 05:22:49;;;;;;;12.13;7.60;;;;;;;;;;5035823;28;20018;-38
2022/05/13 05:25:15;;;;;;;14.20;7.95;;;;;;;;;;5036043;28;20461;-38
2022/05/13 05:27:41;;;;;;;8.23;6.63;;;;;;;;;;5034574;28;20064;-38
2022/05/13 05:30:08;;;;;;;10.73;6.38;;;;;;;;;;5035786;28;20357;-38
2022/05/13 05:32:33;;;;;;;15.18;7.22;;;;;;;;;;5035883;28;20053;-38
2022/05/13 05:34:59;;;;;;;11.02;6.20;;;;;;;;;;5034029;28;20507;-38
2022/05/13 05:37:24;;;;;;;13.63;5.15;;;;;;;;;;5034580;28;20048;-38
2022/05/13 05:39:49;;;;;;;10.48;5.57;;;;;;;;;;5035444;28;20357;-38
2022/05/13 05:42:15;;;;;;;14.15;4.97;;;;;;;;;;5035642;28;20025;-38
2022/05/13 05:44:40;;;;;;;18.05;6.15;;;;;;;;;;5035496;28;20045;-38
2022/05/13 05:47:05;;;;;;;10.43;5.63;;;;;;;;;;5034025;28;20037;-38
2022/05/13 05:49:31;;;;;;;8.70;5.15;;;;;;;;;;5041076;28;20021;-38
2022/05/13 05:51:56;;;;;;;8.38;4.47;;;;;;;;;;5048434;28;20025;-40
2022/05/13 05:57:14;;;;;;;5.63;3.45;;;;;;;;;;5039820;28;20370;-38
2022/05/13 05:59:41;;;;;;;18.65;4.03;;;;;;;;;;5039769;28;20035;-38
2022/05/13 06:02:07;;;;;;;9.88;3.72;;;;;;;;;;5039727;28;20036;-38
2022/05/13 06:04:32;;;;;;;5.45;3.38;;;;;;;;;;5036274;28;20050;-38
2022/05/13 06:06:59;;;;;;;4.60;3.03;;;;;;;;;;5040087;28;20079;-38
2022/05/13 06:09:24;;;;;;;4.57;2.72;;;;;;;;;;5043029;28;20057;-38
2022/05/13 06:11:50;;;;;;;4.57;2.70;;;;;;;;;;5054187;28;20167;-38
2022/05/13 06:14:15;;;;;;;9.93;3.30;;;;;;;;;;5042342;28;20017;-37
2022/05/13 06:16:41;;;;;;;6.43;3.28;;;;;;;;;;5041816;28;20052;-38
2022/05/13 06:19:06;;;;;;;4.03;2.92;;;;;;;;;;5042740;28;20043;-40
2022/05/13 06:21:33;;;;;;;6.85;2.80;;;;;;;;;;5042770;28;20043;-38
2022/05/13 06:23:59;;;;;;;4.80;2.72;;;;;;;;;;5047413;28;20360;-38
2022/05/13 06:26:24;;;;;;;3.67;2.72;;;;;;;;;;5042587;28;20142;-38
2022/05/13 06:28:50;;;;;;;4.13;2.90;;;;;;;;;;5036955;28;20025;-40
2022/05/13 06:31:16;;;;;;;3.38;2.47;;;;;;;;;;5039048;28;20533;-38
2022/05/13 06:33:42;;;;;;;3.05;2.60;;;;;;;;;;5037329;28;20025;-39
2022/05/13 06:36:07;;;;;;;2.92;2.38;;;;;;;;;;5036653;28;20037;-37
2022/05/13 06:38:33;;;;;;;7.22;3.17;;;;;;;;;;5042832;28;20111;-38
2022/05/13 06:40:58;;;;;;;9.63;2.83;;;;;;;;;;5038609;28;20507;-38
2022/05/13 06:43:24;;;;;;;5.70;2.90;;;;;;;;;;5034002;28;20251;-38
2022/05/13 06:45:49;;;;;;;4.82;2.65;;;;;;;;;;5046578;28;20357;-41
2022/05/13 06:48:14;;;;;;;3.95;2.40;;;;;;;;;;5051586;28;20415;-37
2022/05/13 06:50:43;;;;;;;5.57;2.67;;;;;;;;;;5052112;28;20530;-38
2022/05/13 06:53:08;;;;;;;6.72;3.00;;;;;;;;;;5039603;28;20270;-37
2022/05/13 06:55:34;;;;;;;3.42;2.13;;;;;;;;;;5033277;28;20025;-38
2022/05/13 06:57:59;;;;;;;4.77;2.50;;;;;;;;;;5033398;28;20029;-37
2022/05/13 07:00:24;;;;;;;5.18;2.85;;;;;;;;;;5032936;28;20282;-38
2022/05/13 07:02:50;;;;;;;2.83;2.10;;;;;;;;;;5041617;28;20020;-37
2022/05/13 07:05:17;;;;;;;4.97;2.93;;;;;;;;;;5034517;28;20505;-38
2022/05/13 07:07:42;;;;;;;4.35;2.58;;;;;;;;;;5048995;28;20381;-37
2022/05/13 07:10:08;;;;;;;6.13;2.95;;;;;;;;;;5051731;28;20166;-38
2022/05/13 07:12:34;;;;;;;2.88;2.55;;;;;;;;;;5049975;28;20029;-38
2022/05/13 07:14:59;;;;;;;4.55;2.80;;;;;;;;;;5032839;28;20071;-37
2022/05/13 07:17:25;;;;;;;6.88;2.65;;;;;;;;;;5037146;28;20557;-39
2022/05/13 07:19:50;;;;;;;4.10;2.28;;;;;;;;;;5051301;28;20029;-37
2022/05/13 07:22:15;;;;;;;2.58;2.38;;;;;;;;;;5049545;28;20017;-38
2022/05/13 07:24:41;;;;;;;3.67;2.37;;;;;;;;;;5046849;28;20021;-37
2022/05/13 07:27:06;;;;;;;7.97;2.28;;;;;;;;;;5038192;28;20293;-38
2022/05/13 07:29:32;;;;;;;3.50;2.53;;;;;;;;;;5034985;28;20029;-39
2022/05/13 07:31:57;;;;;;;13.23;2.67;;;;;;;;;;5048182;28;20019;-37
2022/05/13 07:34:23;;;;;;;5.47;2.80;;;;;;;;;;5032199;28;20021;-38
2022/05/13 07:36:48;;;;;;;6.60;2.53;;;;;;;;;;5048371;28;20527;-37
2022/05/13 07:41:58;;;;;;;5.30;2.92;;;;;;;;;;5043271;28;20044;-38
2022/05/13 07:44:24;;;;;;;17.30;3.75;;;;;;;;;;5043180;28;20025;-41
2022/05/13 07:46:51;;;;;;;14.57;2.75;;;;;;;;;;5047903;28;20044;-38
2022/05/13 07:49:16;;;;;;;5.10;2.65;;;;;;;;;;5030637;28;20017;-38
2022/05/13 07:51:41;;;;;;;9.73;2.60;;;;;;;;;;5034306;28;20016;-39
2022/05/13 07:54:07;;;;;;;10.13;2.83;;;;;;;;;;5039659;28;20068;-38
2022/05/13 07:56:32;;;;;;;4.40;2.92;;;;;;;;;;5028960;28;20075;-39
2022/05/13 07:59:00;;;;;;;4.20;2.65;;;;;;;;;;5038299;28;20116;-40
2022/05/13 08:01:26;;;;;;;3.63;2.47;;;;;;;;;;5037288;28;20490;-36
2022/05/13 08:03:51;;;;;;;2.70;2.10;;;;;;;;;;5038664;28;20108;-37
2022/05/13 08:06:17;;;;;;;5.53;1.92;;;;;;;;;;5034646;28;20049;-37
2022/05/13 08:08:45;;;;;;;3.42;2.20;;;;;;;;;;5031026;28;20040;-38
2022/05/13 08:11:11;;;;;;;9.55;2.50;;;;;;;;;;5036945;28;20395;-39
2022/05/13 08:13:37;;;;;;;2.95;2.20;;;;;;;;;;5028790;28;20029;-39
2022/05/13 08:16:04;;;;;;;4.20;2.08;;;;;;;;;;5031159;28;20388;-38
2022/05/13 08:18:29;;;;;;;3.35;1.95;;;;;;;;;;5032064;28;20028;-40
2022/05/13 08:20:55;;;;;;;3.45;2.35;;;;;;;;;;5031576;28;20453;-39
2022/05/13 08:23:20;;;;;;;4.68;2.30;;;;;;;;;;5032248;28;20017;-37
2022/05/13 08:25:46;;;;;;;2.90;2.28;;;;;;;;;;5031909;28;20105;-38
2022/05/13 08:28:12;;;;;;;15.73;3.85;;;;;;;;;;5029942;28;20051;-39
2022/05/13 08:30:38;;;;;;;6.13;2.20;;;;;;;;;;5034500;28;20036;-39
2022/05/13 08:33:08;;;;;;;8.10;2.05;;;;;;;;;;5033129;28;20033;-40
2022/05/13 08:35:38;;;;;;;3.33;2.10;;;;;;;;;;5041092;28;20388;-41
2022/05/13 08:38:03;;;;;;;8.10;2.75;;;;;;;;;;5051376;28;20040;-38
2022/05/13 08:40:35;;;;;;;5.80;1.98;;;;;;;;;;5049494;28;20029;-39
2022/05/13 08:43:04;;;;;;;2.40;2.10;;;;;;;;;;5041509;28;20029;-38
2022/05/13 08:45:31;;;;;;;3.08;2.25;;;;;;;;;;5033793;28;20036;-40
2022/05/13 08:47:57;;;;;;;2.78;2.30;;;;;;;;;;5047589;28;20078;-37
2022/05/13 08:50:31;;;;;;;2.80;2.15;;;;;;;;;;5034517;28;20052;-37
2022/05/13 08:53:08;;;;;;;2.95;2.08;;;;;;;;;;5041053;28;20102;-43
2022/05/13 08:55:50;;;;;;;2.80;2.10;;;;;;;;;;5051363;28;20056;-39
2022/05/13 08:58:25;;;;;;;4.70;2.42;;;;;;;;;;5041550;28;20036;-37
2022/05/13 09:00:53;;;;;;;4.45;1.88;;;;;;;;;;5045567;28;20029;-37
2022/05/13 09:03:28;;;;;;;11.90;2.72;;;;;;;;;;5041644;28;20101;-40
2022/05/13 09:06:00;;;;;;;7.15;2.65;;;;;;;;;;5044703;28;20132;-39
2022/05/13 09:08:25;;;;;;;6.00;2.15;;;;;;;;;;5035419;28;20370;-38
2022/05/13 09:11:02;;;;;;;9.23;2.08;;;;;;;;;;5035261;28;20037;-38
2022/05/13 09:13:47;;;;;;;3.72;2.15;;;;;;;;;;5040688;28;20081;-42
2022/05/13 09:16:13;;;;;;;1.85;1.60;;;;;;;;;;5033983;28;20040;-39
2022/05/13 09:18:43;;;;;;;3.42;1.60;;;;;;;;;;5031727;28;20033;-39
2022/05/13 09:21:19;;;;;;;2.85;1.50;;;;;;;;;;5039178;28;20025;-38
2022/05/13 09:23:45;;;;;;;2.03;1.40;;;;;;;;;;5037959;28;20041;-39
2022/05/13 09:26:14;;;;;;;3.17;1.60;;;;;;;;;;5037961;28;20033;-38
2022/05/13 09:28:59;;;;;;;4.15;2.00;;;;;;;;;;5041189;28;20032;-38
2022/05/13 09:31:26;;;;;;;7.72;1.98;;;;;;;;;;5047539;28;20053;-40
2022/05/13 09:33:51;;;;;;;4.87;1.90;;;;;;;;;;5043215;28;20395;-38
2022/05/13 09:36:23;;;;;;;8.53;1.73;;;;;;;;;;5052252;28;20103;-38
2022/05/13 09:38:54;;;;;;;2.15;1.33;;;;;;;;;;5043401;28;20267;-38
2022/05/13 09:41:24;;;;;;;3.15;1.35;;;;;;;;;;5049863;28;20036;-39
2022/05/13 09:43:54;;;;;;;4.60;1.70;;;;;;;;;;5039697;28;20033;-40
2022/05/13 09:46:36;;;;;;;4.32;1.60;;;;;;;;;;5038291;28;20072;-39
2022/05/13 09:49:02;;;;;;;1.98;1.50;;;;;;;;;;5041888;28;20033;-38
2022/05/13 09:51:27;;;;;;;1.60;1.50;;;;;;;;;;5054601;28;20460;-38
2022/05/13 09:54:05;;;;;;;1.55;1.45;;;;;;;;;;5040355;28;20037;-38
2022/05/13 09:56:37;;;;;;;2.42;1.45;;;;;;;;;;5041773;28;20522;-39
2022/05/13 09:59:04;;;;;;;3.47;1.63;;;;;;;;;;5041000;28;20528;-38
2022/05/13 10:01:30;;;;;;;2.78;1.80;;;;;;;;;;5039105;28;20104;-38
2022/05/13 10:04:08;;;;;;;3.70;1.67;;;;;;;;;;5041517;28;20105;-38
2022/05/13 10:06:35;;;;;;;3.85;1.85;;;;;;;;;;5051170;28;20044;-40
2022/05/13 10:14:32;;;;;;;3.28;1.90;;;;;;;;;;5034049;28;20036;-37
2022/05/13 10:17:00;;;;;;;4.95;1.95;;;;;;;;;;5036178;28;20381;-37
2022/05/13 10:19:34;;;;;;;3.70;2.15;;;;;;;;;;5032605;28;20037;-38
2022/05/13 10:22:05;;;;;;;2.88;1.60;;;;;;;;;;5041440;28;20472;-38
2022/05/13 10:24:30;;;;;;;2.00;1.90;;;;;;;;;;5033767;28;20025;-37
2022/05/13 10:26:58;;;;;;;2.55;1.70;;;;;;;;;;5035925;28;20040;-37
2022/05/13 10:29:26;;;;;;;3.20;1.85;;;;;;;;;;5039915;28;20345;-38
2022/05/13 10:31:53;;;;;;;2.47;1.70;;;;;;;;;;5047036;28;20060;-37
2022/05/13 10:34:24;;;;;;;2.40;2.05;;;;;;;;;;5052625;28;20112;-38
2022/05/13 10:37:01;;;;;;;4.32;1.85;;;;;;;;;;5040852;28;20037;-40
2022/05/13 10:39:27;;;;;;;7.97;2.40;;;;;;;;;;5036193;28;20034;-39
2022/05/13 10:42:04;;;;;;;2.35;1.70;;;;;;;;;;5033617;28;20024;-38
2022/05/13 10:44:40;;;;;;;2.42;1.63;;;;;;;;;;5037612;28;20169;-39
2022/05/13 10:47:11;;;;;;;2.55;1.90;;;;;;;;;;5039027;28;20028;-39
2022/05/13 10:49:40;;;;;;;3.35;1.80;;;;;;;;;;5039881;28;20025;-39
2022/05/13 10:52:06;;;;;;;3.67;1.83;;;;;;;;;;5038737;28;20029;-38
2022/05/13 10:54:31;;;;;;;5.72;2.20;;;;;;;;;;5040153;28;20341;-41
2022/05/13 10:56:59;;;;;;;2.17;1.40;;;;;;;;;;5040961;28;20025;-38
2022/05/13 10:59:43;;;;;;;7.13;1.95;;;;;;;;;;5036821;28;20263;-39
2022/05/13 11:02:08;;;;;;;2.25;1.60;;;;;;;;;;5033540;28;20112;-39
2022/05/13 11:04:38;;;;;;;2.80;1.60;;;;;;;;;;5038008;28;20147;-38
2022/05/13 11:07:06;;;;;;;3.08;1.77;;;;;;;;;;5040706;28;20395;-41
2022/05/13 11:09:47;;;;;;;11.60;2.08;;;;;;;;;;5039183;28;20024;-40
2022/05/13 11:12:19;;;;;;;3.00;1.63;;;;;;;;;;5036328;28;20481;-39
2022/05/13 11:15:01;;;;;;;3.70;1.77;;;;;;;;;;5037594;28;20388;-38
2022/05/13 11:17:36;;;;;;;2.15;1.50;;;;;;;;;;5047301;28;20472;-38
2022/05/13 11:20:10;;;;;;;4.50;1.60;;;;;;;;;;5050338;28;20028;-40
2022/05/13 11:22:35;;;;;;;4.22;2.05;;;;;;;;;;5039291;28;20104;-38
2022/05/13 11:28:20;;;;;;;2.20;1.80;;;;;;;;;;5048987;28;20043;-40
2022/05/13 11:30:52;;;;;;;12.63;3.00;;;;;;;;;;5040052;28;20048;-40
2022/05/13 11:33:17;;;;;;;3.28;1.45;;;;;;;;;;5044884;28;20531;-39
2022/05/13 11:35:57;;;;;;;3.80;1.50;;;;;;;;;;5030724;28;20017;-39
2022/05/13 11:38:29;;;;;;;6.20;1.70;;;;;;;;;;5043219;28;20024;-41
2022/05/13 11:41:08;;;;;;;2.72;1.50;;;;;;;;;;5041437;28;20029;-38
2022/05/13 11:43:46;;;;;;;3.30;1.60;;;;;;;;;;5034005;28;20103;-39
2022/05/13 11:46:11;;;;;;;5.10;1.52;;;;;;;;;;5030370;28;20033;-40
2022/05/13 11:48:42;;;;;;;3.72;1.80;;;;;;;;;;5043156;28;20388;-39
2022/05/13 11:51:10;;;;;;;5.55;1.67;;;;;;;;;;5041010;28;20033;-39
2022/05/13 11:53:42;;;;;;;2.67;1.70;;;;;;;;;;5037996;28;20024;-40
2022/05/13 11:56:31;;;;;;;1.88;1.55;;;;;;;;;;5035620;28;20029;-40
2022/05/13 11:59:11;;;;;;;2.97;2.03;;;;;;;;;;5032193;28;20076;-39
2022/05/13 12:01:36;;;;;;;5.70;1.77;;;;;;;;;;5032698;28;20092;-38
2022/05/13 12:04:13;;;;;;;7.90;2.13;;;;;;;;;;5042267;28;20033;-37
2022/05/13 12:06:51;;;;;;;4.78;2.38;;;;;;;;;;5046681;28;20061;-37
2022/05/13 12:09:24;;;;;;;5.53;2.03;;;;;;;;;;5048665;28;20527;-39
2022/05/13 12:11:52;;;;;;;5.75;1.90;;;;;;;;;;5041145;28;20381;-38
2022/05/13 12:14:32;;;;;;;2.50;1.70;;;;;;;;;;5033429;28;20022;-36
2022/05/13 12:17:16;;;;;;;6.60;2.17;;;;;;;;;;5031005;28;20109;-36
2022/05/13 12:22:52;;;;;;;4.13;2.00;;;;;;;;;;5034149;28;20322;-36
2022/05/13 12:25:27;;;;;;;4.65;1.80;;;;;;;;;;5030257;28;20021;-37
2022/05/13 12:28:03;;;;;;;5.35;1.60;;;;;;;;;;5041011;28;20865;-36
2022/05/13 12:30:31;;;;;;;2.78;1.67;;;;;;;;;;5035394;28;20025;-37
2022/05/13 12:32:58;;;;;;;18.25;2.20;;;;;;;;;;5032662;28;20028;-36
2022/05/13 12:38:21;;;;;;;4.38;2.00;;;;;;;;;;5038153;28;20126;-36
2022/05/13 12:41:05;;;;;;;2.28;1.90;;;;;;;;;;5034552;28;20048;-38
2022/05/13 12:43:53;;;;;;;7.70;2.30;;;;;;;;;;5040043;28;20025;-37
2022/05/13 12:46:20;;;;;;;5.20;2.13;;;;;;;;;;5035068;28;20017;-37
2022/05/13 12:49:02;;;;;;;4.40;1.60;;;;;;;;;;5028465;28;20022;-38
2022/05/13 12:51:40;;;;;;;5.35;1.77;;;;;;;;;;5031836;28;20025;-39
2022/05/13 12:54:06;;;;;;;5.55;1.70;;;;;;;;;;5047481;28;20404;-37
2022/05/13 12:56:59;;;;;;;4.82;2.20;;;;;;;;;;5038368;28;20477;-37
2022/05/13 12:59:27;;;;;;;4.85;1.80;;;;;;;;;;5036579;28;20128;-37
2022/05/13 13:01:56;;;;;;;5.87;2.00;;;;;;;;;;5033170;28;20028;-37
2022/05/13 13:04:23;;;;;;;7.65;2.50;;;;;;;;;;5039873;28;20583;-37
2022/05/13 13:06:49;;;;;;;4.75;2.00;;;;;;;;;;5032581;28;20042;-37
2022/05/13 13:09:16;;;;;;;1.77;1.50;;;;;;;;;;5038735;28;20024;-38
2022/05/13 13:11:46;;;;;;;2.50;1.83;;;;;;;;;;5038516;28;20464;-37
2022/05/13 13:14:14;;;;;;;7.20;1.80;;;;;;;;;;5033837;28;20029;-38
2022/05/13 13:16:40;;;;;;;4.43;1.65;;;;;;;;;;5049654;28;20021;-36
2022/05/13 13:19:12;;;;;;;42.88;21.75;;;;;;;;;;5049301;28;20027;-40
2022/05/13 13:21:39;;;;;;;3.95;1.75;;;;;;;;;;5034424;28;20030;-40
2022/05/13 13:24:30;;;;;;;4.68;1.80;;;;;;;;;;5045644;28;20103;-38
2022/05/13 13:27:23;;;;;;;2.53;1.63;;;;;;;;;;5038934;28;20115;-41
2022/05/13 13:29:49;;;;;;;3.72;1.75;;;;;;;;;;5042827;28;20032;-41
2022/05/13 13:32:22;;;;;;;2.35;1.50;;;;;;;;;;5043333;28;20025;-38
2022/05/13 13:34:57;;;;;;;3.83;1.75;;;;;;;;;;5039385;28;20025;-38
2022/05/13 13:37:25;;;;;;;3.92;1.80;;;;;;;;;;5037286;28;20064;-41
2022/05/13 13:39:51;;;;;;;2.05;1.90;;;;;;;;;;5035963;28;20033;-40
2022/05/13 13:42:18;;;;;;;7.07;2.05;;;;;;;;;;5047813;28;20037;-39
2022/05/13 13:44:44;;;;;;;3.03;1.88;;;;;;;;;;5037198;28;20396;-38
2022/05/13 13:47:24;;;;;;;2.97;1.92;;;;;;;;;;5032643;28;20043;-40
2022/05/13 13:49:49;;;;;;;4.97;1.90;;;;;;;;;;5033932;28;20064;-38
2022/05/13 13:52:19;;;;;;;4.50;2.03;;;;;;;;;;5035128;28;20030;-38
2022/05/13 13:55:03;;;;;;;7.07;1.90;;;;;;;;;;5033834;28;20033;-38
2022/05/13 13:57:45;;;;;;;2.42;2.00;;;;;;;;;;5034043;28;20583;-38
2022/05/13 14:00:20;;;;;;;2.65;1.92;;;;;;;;;;5035015;28;20033;-38
2022/05/13 14:02:50;;;;;;;5.53;2.42;;;;;;;;;;5035174;28;20021;-38
2022/05/13 14:05:17;;;;;;;5.15;2.25;;;;;;;;;;5034857;28;20049;-38
2022/05/13 14:07:44;;;;;;;4.30;1.75;;;;;;;;;;5034929;28;20033;-38
2022/05/13 14:10:10;;;;;;;6.30;2.35;;;;;;;;;;5034753;28;20469;-38
2022/05/13 14:12:37;;;;;;;5.60;2.10;;;;;;;;;;5035133;28;20021;-37
2022/05/13 14:15:06;;;;;;;51.05;4.20;;;;;;;;;;5035053;28;20024;-38
2022/05/13 14:17:32;;;;;;;10.75;2.42;;;;;;;;;;5035063;28;20476;-38
2022/05/13 14:20:03;;;;;;;4.18;2.10;;;;;;;;;;5035207;28;20079;-38
2022/05/13 14:22:29;;;;;;;4.63;2.30;;;;;;;;;;5033451;28;20017;-38
2022/05/13 14:25:02;;;;;;;4.50;2.30;;;;;;;;;;5033528;28;20018;-38
2022/05/13 14:27:30;;;;;;;5.38;2.72;;;;;;;;;;5033413;28;20034;-38
2022/05/13 14:29:56;;;;;;;3.17;2.28;;;;;;;;;;5035225;28;20441;-38
2022/05/13 14:32:29;;;;;;;2.92;2.00;;;;;;;;;;5032574;28;20515;-37
2022/05/13 14:35:06;;;;;;;2.95;1.90;;;;;;;;;;5033324;28;20112;-37
2022/05/13 14:37:47;;;;;;;5.72;2.28;;;;;;;;;;5033278;28;20037;-37
2022/05/13 14:40:15;;;;;;;4.75;2.42;;;;;;;;;;5033132;28;20059;-38
2022/05/13 14:42:43;;;;;;;6.70;2.20;;;;;;;;;;5034800;28;20087;-37
2022/05/13 14:45:20;;;;;;;5.18;2.15;;;;;;;;;;5054458;28;20025;-38
2022/05/13 14:47:47;;;;;;;2.08;1.85;;;;;;;;;;5052706;28;20068;-38
2022/05/13 14:50:16;;;;;;;4.35;2.00;;;;;;;;;;5054111;28;20017;-38
2022/05/13 14:52:41;;;;;;;;;;;;;;;;;;5054679;28;20052;-38
2022/05/13 14:55:14;;;;;;;6.43;2.53;;;;;;;;;;5053929;28;19947;-38
2022/05/13 14:57:42;;;;;;;5.93;2.30;;;;;;;;;;5051722;28;20017;-38
2022/05/13 15:00:10;;;;;;;4.95;2.03;;;;;;;;;;5051310;28;20024;-37
2022/05/13 15:02:45;;;;;;;4.85;2.17;;;;;;;;;;5052951;28;20100;-38
2022/05/13 15:05:26;;;;;;;4.75;2.33;;;;;;;;;;5053609;28;20113;-37
2022/05/13 15:07:52;;;;;;;4.57;2.10;;;;;;;;;;5052271;28;20080;-38
2022/05/13 15:10:22;;;;;;;4.53;2.72;;;;;;;;;;5053794;28;20031;-38